HKJK

Jomo Kenyatta International Airport

Airport
ICAO code
HKJK
IATA Code
NBO
Summary
ICAO Region
AFI
ICAO Territory
Location

Embakasi, Nairobi

Serving
Nairobi
Elevation
5330 ft
Coordinates
1° 19' 5" S , 36° 55' 45" E
KCC
Metar
Observation
HKJK 062300Z 04004KT 9999 BKN018 18/14 Q1021 NOSIG
Station
Nairobi/Jomo Kenyatta Airport TWR/APP/NOF/Civil Airlines
Date/Time
2022-12-06 23:00:00
Wind direction
40°
Wind speed
04 kts
Lowest cloud amount
broken clouds
Temperature
18°C
Dew point
14°C
Humidity
77%
QNH
1021 hPa
Weather condition
n/a

International airport serving Nairobi, Kenya.

Climatology

Sub-tropical Highland climate (Köppen climate classification Cwb)

Runways

Designator Length Width Surface Rops
6/24 4117 45 ASP Yes/Yes

Airport map

Aerial View

SKYbrary Partners:

Safety knowledge contributed by: